Time;durP1;ratioP1;P1;durP2;ratioP2;P2;SDS_P1;SDS_P2;PMS_P1;PMS_P2;Temp;Humidity;BMP_temperature;BMP_pressure;BME280_temperature;BME280_humidity;BME280_pressure;Samples;Min_cycle;Max_cycle;Signal;HPM_P1;HPM_P2
2021/05/19 00:01:52;;;;;;;4.20;2.47;;;9.70;97.50;;;;;;5032032;28;20602;-74
2021/05/19 00:04:17;;;;;;;4.73;2.40;;;9.70;96.90;;;;;;5045067;28;20213;-74
2021/05/19 00:06:44;;;;;;;4.00;2.23;;;9.70;97.00;;;;;;5040104;28;21253;-75
2021/05/19 00:09:12;;;;;;;6.47;2.20;;;9.70;96.90;;;;;;5038521;28;20564;-75
2021/05/19 00:11:39;;;;;;;4.90;2.40;;;9.60;97.00;;;;;;5051999;28;20973;-75
2021/05/19 00:14:06;;;;;;;4.00;2.07;;;9.60;97.00;;;;;;5039290;28;20922;-75
2021/05/19 00:16:32;;;;;;;4.07;2.40;;;9.60;97.10;;;;;;5044554;28;20478;-75
2021/05/19 00:18:59;;;;;;;5.50;2.23;;;9.70;97.10;;;;;;5032368;28;20432;-74
2021/05/19 00:21:25;;;;;;;4.90;2.63;;;9.70;96.70;;;;;;5041829;28;20450;-74
2021/05/19 00:23:51;;;;;;;6.33;2.63;;;9.70;96.90;;;;;;5038593;28;20929;-75
2021/05/19 00:26:17;;;;;;;5.03;2.20;;;9.70;97.00;;;;;;5051478;28;20419;-73
2021/05/19 00:28:45;;;;;;;7.30;3.17;;;9.70;96.90;;;;;;5051327;28;20488;-74
2021/05/19 00:31:12;;;;;;;4.83;2.50;;;9.70;96.90;;;;;;5032754;28;20312;-74
2021/05/19 00:33:37;;;;;;;3.83;2.50;;;9.70;97.10;;;;;;5047104;28;20438;-74
2021/05/19 00:36:04;;;;;;;5.83;2.83;;;9.70;97.00;;;;;;5049653;28;20475;-75
2021/05/19 00:38:31;;;;;;;5.20;2.43;;;9.70;97.00;;;;;;5049122;28;20181;-73
2021/05/19 00:40:57;;;;;;;5.20;2.43;;;9.60;97.10;;;;;;5040030;28;20802;-73
2021/05/19 00:43:24;;;;;;;4.53;2.50;;;9.60;97.10;;;;;;5051345;28;20423;-74
2021/05/19 00:45:50;;;;;;;4.37;2.50;;;9.60;96.90;;;;;;5051088;28;20209;-75
2021/05/19 00:48:16;;;;;;;5.40;2.30;;;9.60;96.90;;;;;;5048524;28;20424;-75
2021/05/19 00:50:43;;;;;;;4.57;2.43;;;9.60;97.00;;;;;;5029751;28;21051;-75
2021/05/19 00:53:08;;;;;;;4.67;2.60;;;9.70;97.00;;;;;;5031949;28;20244;-74
2021/05/19 00:55:34;;;;;;;4.20;2.23;;;9.70;96.70;;;;;;5042696;28;20565;-75
2021/05/19 00:58:01;;;;;;;6.57;3.60;;;9.70;96.50;;;;;;5053186;28;20246;-75
2021/05/19 01:00:27;;;;;;;4.70;2.13;;;9.80;96.60;;;;;;5052675;28;20434;-74
2021/05/19 01:02:53;;;;;;;4.33;2.47;;;9.90;96.40;;;;;;5051003;28;20455;-75
2021/05/19 01:10:44;;;;;;;4.77;2.50;;;9.80;96.10;;;;;;5030740;28;20512;-74
2021/05/19 01:13:11;;;;;;;4.80;2.47;;;9.70;96.40;;;;;;5030500;28;21009;-75
2021/05/19 01:15:37;;;;;;;8.80;2.47;;;9.70;96.70;;;;;;5030916;28;20371;-74
2021/05/19 01:18:06;;;;;;;6.73;2.87;;;9.70;96.70;;;;;;5031924;28;20515;-74
2021/05/19 01:20:33;;;;;;;5.43;2.50;;;9.60;96.70;;;;;;5030243;28;20282;-74
2021/05/19 01:23:00;;;;;;;4.70;2.47;;;9.70;96.90;;;;;;5039229;28;20490;-74
2021/05/19 01:25:27;;;;;;;6.10;2.93;;;9.70;96.60;;;;;;5031379;28;20448;-74
2021/05/19 01:27:55;;;;;;;4.40;2.50;;;9.70;96.70;;;;;;5040260;28;20438;-74
2021/05/19 01:30:21;;;;;;;5.93;3.00;;;9.70;96.70;;;;;;5045382;28;20430;-74
2021/05/19 01:32:48;;;;;;;7.33;3.27;;;9.80;96.60;;;;;;5028530;28;20443;-73
2021/05/19 01:35:14;;;;;;;4.87;2.80;;;9.80;96.50;;;;;;5046101;28;20466;-74
2021/05/19 01:37:41;;;;;;;5.10;2.90;;;9.80;96.50;;;;;;5040971;28;20424;-74
2021/05/19 01:40:08;;;;;;;5.40;2.87;;;9.80;96.50;;;;;;5043413;28;20437;-74
2021/05/19 01:42:33;;;;;;;5.80;3.07;;;9.80;96.40;;;;;;5039918;28;20423;-74
2021/05/19 01:44:59;;;;;;;5.30;2.83;;;9.90;96.10;;;;;;5033841;28;20467;-74
2021/05/19 01:47:42;;;;;;;4.80;2.20;;;9.90;95.90;;;;;;5039614;28;20561;-74
2021/05/19 01:50:20;;;;;;;5.37;2.73;;;9.90;96.00;;;;;;5029747;28;20677;-74
2021/05/19 01:52:49;;;;;;;7.03;2.93;;;9.90;96.10;;;;;;5042235;28;20438;-74
2021/05/19 01:55:16;;;;;;;6.47;3.07;;;9.80;96.20;;;;;;5037308;28;20474;-75
2021/05/19 01:57:46;;;;;;;6.40;3.20;;;9.90;95.90;;;;;;5035010;28;20439;-76
2021/05/19 02:00:14;;;;;;;6.27;2.90;;;9.90;95.70;;;;;;5041049;28;20456;-75
2021/05/19 02:02:41;;;;;;;10.47;3.57;;;9.90;95.70;;;;;;5043019;28;20423;-74
2021/05/19 02:05:11;;;;;;;4.97;2.97;;;9.90;95.60;;;;;;5038957;28;20478;-76
2021/05/19 02:07:37;;;;;;;8.13;3.10;;;9.90;95.30;;;;;;5036242;28;20450;-76
2021/05/19 02:10:05;;;;;;;6.43;2.87;;;10.00;95.40;;;;;;5039746;28;20431;-75
2021/05/19 02:12:31;;;;;;;6.33;2.70;;;10.10;95.10;;;;;;5042645;28;20947;-75
2021/05/19 02:14:57;;;;;;;5.80;3.13;;;10.10;94.90;;;;;;5039483;28;20467;-74
2021/05/19 02:17:26;;;;;;;7.80;3.13;;;10.00;95.10;;;;;;5034221;28;20678;-75
2021/05/19 02:19:52;;;;;;;5.30;2.73;;;10.10;95.20;;;;;;5040065;28;20180;-74
2021/05/19 02:22:18;;;;;;;5.00;2.63;;;10.10;95.20;;;;;;5034372;28;20781;-75
2021/05/19 02:24:43;;;;;;;6.03;3.40;;;10.10;95.10;;;;;;5038112;28;20564;-74
2021/05/19 02:27:09;;;;;;;7.17;3.00;;;10.20;94.90;;;;;;5043222;28;20221;-75
2021/05/19 02:29:35;;;;;;;5.10;2.87;;;10.20;94.80;;;;;;5028958;28;20211;-74
2021/05/19 02:32:00;;;;;;;4.60;2.47;;;10.20;94.80;;;;;;5023389;28;20201;-75
2021/05/19 02:34:26;;;;;;;5.63;3.10;;;10.20;94.70;;;;;;5030150;28;20223;-75
2021/05/19 02:36:55;;;;;;;5.60;3.10;;;10.20;94.50;;;;;;5028934;28;20189;-75
2021/05/19 02:39:21;;;;;;;4.53;2.80;;;10.10;95.00;;;;;;5038631;28;20592;-76
2021/05/19 02:41:47;;;;;;;5.13;2.83;;;10.20;94.90;;;;;;5048583;28;20511;-76
2021/05/19 02:44:14;;;;;;;5.30;3.23;;;10.20;94.80;;;;;;5049136;28;21242;-75
2021/05/19 02:46:39;;;;;;;5.60;3.10;;;10.10;94.90;;;;;;5032366;28;20188;-76
2021/05/19 02:49:05;;;;;;;6.40;3.33;;;10.10;95.00;;;;;;5028915;28;20919;-75
2021/05/19 02:51:36;;;;;;;6.43;3.43;;;10.10;95.20;;;;;;5042528;28;20224;-75
2021/05/19 02:54:04;;;;;;;5.03;2.70;;;10.00;95.50;;;;;;5049119;28;20640;-75
2021/05/19 02:56:30;;;;;;;5.83;3.30;;;10.00;95.80;;;;;;5047145;28;20474;-76
2021/05/19 02:58:55;;;;;;;6.30;2.70;;;10.10;95.70;;;;;;5038142;28;20435;-76
2021/05/19 03:01:21;;;;;;;5.60;3.00;;;10.10;95.60;;;;;;5027955;28;20311;-75
2021/05/19 03:03:47;;;;;;;6.50;3.27;;;10.10;95.70;;;;;;5039635;28;20189;-75
2021/05/19 03:06:13;;;;;;;6.57;3.00;;;10.10;95.80;;;;;;5032931;28;20305;-74
2021/05/19 03:08:39;;;;;;;6.60;2.93;;;10.10;96.00;;;;;;5037609;28;20223;-75
2021/05/19 03:11:05;;;;;;;5.00;3.17;;;10.10;95.70;;;;;;5041894;28;20200;-75
2021/05/19 03:13:32;;;;;;;5.50;3.30;;;10.10;95.80;;;;;;5040326;28;20188;-75
2021/05/19 03:15:58;;;;;;;5.37;3.20;;;10.10;95.80;;;;;;5048145;28;20470;-75
2021/05/19 03:18:24;;;;;;;6.50;3.13;;;10.10;95.70;;;;;;5038395;28;20420;-75
2021/05/19 03:20:50;;;;;;;4.87;2.80;;;10.10;95.60;;;;;;5032034;28;20439;-74
2021/05/19 03:23:16;;;;;;;6.20;3.10;;;10.10;95.50;;;;;;5037117;28;20375;-77
2021/05/19 03:25:42;;;;;;;6.73;3.67;;;10.10;95.30;;;;;;5041520;28;20213;-75
2021/05/19 03:28:08;;;;;;;5.20;2.50;;;10.10;95.40;;;;;;5027734;28;20435;-75
2021/05/19 03:30:35;;;;;;;6.70;2.97;;;10.10;95.60;;;;;;5033361;28;20459;-76
2021/05/19 03:33:01;;;;;;;7.27;2.83;;;10.20;95.40;;;;;;5027751;28;20436;-76
2021/05/19 03:35:27;;;;;;;6.60;2.83;;;10.20;95.20;;;;;;5045828;28;20462;-75
2021/05/19 03:37:53;;;;;;;7.80;3.00;;;10.20;95.20;;;;;;5038136;28;20434;-75
2021/05/19 03:40:19;;;;;;;5.00;2.93;;;10.20;95.20;;;;;;5041929;28;20420;-75
2021/05/19 03:42:45;;;;;;;6.63;3.60;;;10.10;95.10;;;;;;5039350;28;20485;-74
2021/05/19 03:45:15;;;;;;;4.90;2.73;;;10.10;95.20;;;;;;5044549;28;20448;-74
2021/05/19 03:47:42;;;;;;;6.43;3.20;;;10.20;95.00;;;;;;5039846;28;20237;-74
2021/05/19 03:50:09;;;;;;;5.07;3.00;;;10.20;94.70;;;;;;5026938;28;20526;-76
2021/05/19 03:52:36;;;;;;;9.27;2.80;;;10.20;94.80;;;;;;5040109;28;20427;-75
2021/05/19 03:55:03;;;;;;;4.20;2.60;;;10.10;94.40;;;;;;5029313;28;20479;-75
2021/05/19 03:57:29;;;;;;;5.93;2.70;;;10.10;94.20;;;;;;5028092;28;20463;-75
2021/05/19 03:59:54;;;;;;;5.63;2.90;;;10.10;94.20;;;;;;5046175;28;20477;-74
2021/05/19 04:02:20;;;;;;;7.00;2.80;;;10.10;94.20;;;;;;5037392;28;20431;-74
2021/05/19 04:04:46;;;;;;;6.30;3.13;;;10.20;94.00;;;;;;5032096;28;20213;-75
2021/05/19 04:07:12;;;;;;;5.40;3.50;;;10.20;93.80;;;;;;5055023;28;20181;-74
2021/05/19 04:09:38;;;;;;;6.67;3.30;;;10.20;93.80;;;;;;5047897;28;20188;-74
2021/05/19 04:12:04;;;;;;;7.53;3.23;;;10.10;94.00;;;;;;5048169;28;20442;-73
2021/05/19 04:14:29;;;;;;;4.97;2.80;;;10.10;93.90;;;;;;5030192;28;20448;-74
2021/05/19 04:16:55;;;;;;;6.17;3.20;;;10.10;93.80;;;;;;5028330;28;20430;-74
2021/05/19 04:19:21;;;;;;;5.20;2.73;;;10.00;93.90;;;;;;5038970;28;20196;-75
2021/05/19 04:21:47;;;;;;;5.20;2.90;;;10.00;93.90;;;;;;5038704;28;20556;-74
2021/05/19 04:24:12;;;;;;;5.70;3.23;;;10.00;93.50;;;;;;5037899;28;20199;-74
2021/05/19 04:26:38;;;;;;;4.73;2.77;;;9.90;93.80;;;;;;5051643;28;20180;-74
2021/05/19 04:29:04;;;;;;;7.27;3.37;;;9.90;94.10;;;;;;5038475;28;20185;-74
2021/05/19 04:31:31;;;;;;;6.73;3.23;;;9.90;93.90;;;;;;5030433;28;20201;-74
2021/05/19 04:33:58;;;;;;;6.33;3.30;;;10.00;94.30;;;;;;5036774;28;20419;-74
2021/05/19 04:36:24;;;;;;;6.53;3.10;;;9.90;94.30;;;;;;5039467;28;20546;-75
2021/05/19 04:38:50;;;;;;;9.90;2.97;;;9.90;94.40;;;;;;5044476;28;20835;-74
2021/05/19 04:41:16;;;;;;;5.30;2.90;;;10.00;94.40;;;;;;5030915;28;20424;-75
2021/05/19 04:43:43;;;;;;;6.13;3.63;;;10.00;94.20;;;;;;5031252;28;20181;-74
2021/05/19 04:46:09;;;;;;;7.70;3.67;;;10.00;94.00;;;;;;5031061;28;20577;-74
2021/05/19 04:48:35;;;;;;;6.57;3.37;;;10.00;94.00;;;;;;5044889;28;20744;-74
2021/05/19 04:51:00;;;;;;;6.27;3.37;;;10.00;93.80;;;;;;5040665;28;20430;-74
2021/05/19 04:53:26;;;;;;;6.80;3.67;;;10.00;93.70;;;;;;5032345;28;20837;-74
2021/05/19 04:55:53;;;;;;;6.83;3.57;;;10.00;93.70;;;;;;5043299;28;20265;-74
2021/05/19 04:58:19;;;;;;;5.63;3.40;;;10.00;93.80;;;;;;5038363;28;20375;-73
2021/05/19 05:00:45;;;;;;;6.23;3.50;;;10.00;93.70;;;;;;5050783;28;20947;-74
2021/05/19 05:03:11;;;;;;;8.43;3.83;;;10.00;93.30;;;;;;5050916;28;20506;-74
2021/05/19 05:05:37;;;;;;;6.20;3.23;;;10.00;93.60;;;;;;5050649;28;20871;-73
2021/05/19 05:08:04;;;;;;;6.33;3.33;;;9.90;93.80;;;;;;5049996;28;20431;-76
2021/05/19 05:10:29;;;;;;;6.83;4.10;;;10.00;93.50;;;;;;5038547;28;20479;-73
2021/05/19 05:12:55;;;;;;;9.43;4.00;;;10.00;93.50;;;;;;5044639;28;21285;-74
2021/05/19 05:15:22;;;;;;;9.20;4.33;;;10.10;93.60;;;;;;5043694;28;20462;-75
2021/05/19 05:17:48;;;;;;;6.10;3.50;;;10.10;93.00;;;;;;5031465;28;20280;-73
2021/05/19 05:20:14;;;;;;;6.70;4.00;;;10.10;92.70;;;;;;5042787;28;20488;-74
2021/05/19 05:22:40;;;;;;;7.37;4.10;;;10.20;92.70;;;;;;5031027;28;20796;-74
2021/05/19 05:25:07;;;;;;;10.80;4.10;;;10.10;92.60;;;;;;5031636;28;20950;-73
2021/05/19 05:27:33;;;;;;;8.73;4.23;;;10.10;92.70;;;;;;5043287;28;20860;-74
2021/05/19 05:29:59;;;;;;;8.50;4.27;;;10.10;92.70;;;;;;5039569;28;20452;-74
2021/05/19 05:32:24;;;;;;;6.40;3.93;;;10.10;92.80;;;;;;5032728;28;20239;-75
2021/05/19 05:34:50;;;;;;;6.47;3.50;;;10.10;93.00;;;;;;5037896;28;20208;-73
2021/05/19 05:37:16;;;;;;;7.87;4.77;;;10.20;92.60;;;;;;5048656;28;20592;-74
2021/05/19 05:39:42;;;;;;;5.93;3.90;;;10.30;92.50;;;;;;5037348;28;20625;-74
2021/05/19 05:42:08;;;;;;;9.90;4.17;;;10.40;92.30;;;;;;5029668;28;20444;-74
2021/05/19 05:44:34;;;;;;;7.50;4.20;;;10.50;91.60;;;;;;5030433;28;20212;-74
2021/05/19 05:47:00;;;;;;;9.33;4.20;;;10.40;91.60;;;;;;5035815;28;20188;-74
2021/05/19 05:49:26;;;;;;;6.83;4.10;;;10.40;91.70;;;;;;5035557;28;20416;-74
2021/05/19 05:51:51;;;;;;;8.33;4.43;;;10.30;92.00;;;;;;5048691;28;20185;-74
2021/05/19 05:54:17;;;;;;;9.50;4.70;;;10.30;92.40;;;;;;5037025;28;20294;-74
2021/05/19 05:56:43;;;;;;;6.67;4.37;;;10.30;92.50;;;;;;5042972;28;20319;-74
2021/05/19 05:59:09;;;;;;;8.20;5.30;;;10.30;92.40;;;;;;5042545;28;20564;-74
2021/05/19 06:01:35;;;;;;;9.90;5.40;;;10.30;92.60;;;;;;5030720;28;20185;-73
2021/05/19 06:04:01;;;;;;;9.13;4.87;;;10.40;92.50;;;;;;5031795;28;20184;-73
2021/05/19 06:06:27;;;;;;;6.87;4.10;;;10.40;91.80;;;;;;5030238;28;20432;-76
2021/05/19 06:08:53;;;;;;;8.27;4.87;;;10.30;92.20;;;;;;5032139;28;20435;-76
2021/05/19 06:11:19;;;;;;;5.87;4.40;;;10.30;92.50;;;;;;5031938;28;20428;-74
2021/05/19 06:13:45;;;;;;;7.23;4.60;;;10.20;92.80;;;;;;5034885;28;20177;-74
2021/05/19 06:16:11;;;;;;;7.93;4.40;;;10.10;92.90;;;;;;5032653;28;20236;-74
2021/05/19 06:18:36;;;;;;;7.20;4.13;;;10.20;93.10;;;;;;5036191;28;20493;-75
2021/05/19 06:21:02;;;;;;;8.73;5.70;;;10.30;93.20;;;;;;5034904;28;20189;-75
2021/05/19 06:23:28;;;;;;;6.60;4.70;;;10.30;93.20;;;;;;5035579;28;20585;-75
2021/05/19 06:25:54;;;;;;;9.57;5.80;;;10.30;93.30;;;;;;5060148;28;20457;-74
2021/05/19 06:28:20;;;;;;;7.40;5.00;;;10.40;92.70;;;;;;5049926;28;20189;-75
2021/05/19 06:30:45;;;;;;;11.63;5.40;;;10.40;92.80;;;;;;5039205;28;20208;-75
2021/05/19 06:33:11;;;;;;;11.10;5.80;;;10.60;92.30;;;;;;5030239;28;20193;-74
2021/05/19 06:35:37;;;;;;;9.80;5.23;;;10.60;91.80;;;;;;5047462;28;20362;-75
2021/05/19 06:38:03;;;;;;;8.27;4.50;;;10.80;91.60;;;;;;5037274;28;20251;-75
2021/05/19 06:40:29;;;;;;;11.17;4.73;;;11.00;91.30;;;;;;5047576;28;20332;-74
2021/05/19 06:42:55;;;;;;;7.40;4.80;;;11.20;90.90;;;;;;5038458;28;20431;-74
2021/05/19 06:45:21;;;;;;;9.20;5.00;;;11.30;90.10;;;;;;5034898;28;20848;-74
2021/05/19 06:47:46;;;;;;;7.67;4.30;;;11.20;90.00;;;;;;5039096;28;20438;-75
2021/05/19 06:50:12;;;;;;;7.77;4.70;;;11.40;89.90;;;;;;5041164;28;20187;-76
2021/05/19 06:52:38;;;;;;;6.40;3.97;;;11.60;90.10;;;;;;5042165;28;20227;-77
2021/05/19 06:55:07;;;;;;;8.30;4.17;;;11.90;89.30;;;;;;5036747;28;20502;-76
2021/05/19 06:57:35;;;;;;;7.20;4.13;;;12.20;88.60;;;;;;5050305;28;20623;-77
2021/05/19 07:00:11;;;;;;;9.50;4.90;;;12.40;86.90;;;;;;5028633;28;20462;-75
2021/05/19 07:02:39;;;;;;;8.40;4.73;;;12.30;85.60;;;;;;5031226;28;20416;-77
2021/05/19 07:05:07;;;;;;;6.40;3.80;;;12.30;87.00;;;;;;5050151;28;20443;-76
2021/05/19 07:07:33;;;;;;;5.30;3.77;;;12.20;85.50;;;;;;5049525;28;20419;-77
2021/05/19 07:09:58;;;;;;;7.87;4.70;;;12.10;84.90;;;;;;5050584;28;20427;-79
2021/05/19 07:12:24;;;;;;;8.93;4.13;;;12.20;84.40;;;;;;5039531;28;20272;-80
2021/05/19 07:14:53;;;;;;;5.37;4.17;;;12.30;84.40;;;;;;5042301;28;20354;-78
2021/05/19 07:17:19;;;;;;;5.33;3.50;;;12.30;83.60;;;;;;5046326;28;20249;-77
2021/05/19 07:19:44;;;;;;;9.30;3.50;;;12.50;84.30;;;;;;5049972;28;21015;-75
2021/05/19 07:22:10;;;;;;;4.90;3.37;;;12.90;83.40;;;;;;5046299;28;20188;-74
2021/05/19 07:24:36;;;;;;;6.83;3.67;;;13.40;82.50;;;;;;5039494;28;20602;-79
2021/05/19 07:27:02;;;;;;;5.63;3.33;;;13.60;80.60;;;;;;5032534;28;20189;-74
2021/05/19 07:29:27;;;;;;;4.63;3.53;;;13.90;79.00;;;;;;5029695;28;20314;-80
2021/05/19 07:31:53;;;;;;;7.87;4.10;;;14.00;77.40;;;;;;5025250;28;20696;-76
2021/05/19 07:34:19;;;;;;;4.80;3.43;;;13.70;78.30;;;;;;5029090;28;20699;-73
2021/05/19 07:36:45;;;;;;;8.10;4.00;;;13.50;82.10;;;;;;5045295;28;20215;-74
2021/05/19 07:39:11;;;;;;;6.07;3.83;;;13.20;85.50;;;;;;5042841;28;20416;-78
2021/05/19 07:41:37;;;;;;;9.70;4.13;;;12.40;86.90;;;;;;5044380;28;20443;-75
2021/05/19 07:44:04;;;;;;;5.53;4.20;;;12.00;89.00;;;;;;5031526;28;20281;-75
2021/05/19 07:46:30;;;;;;;9.77;5.07;;;12.00;90.40;;;;;;5045561;28;20975;-76
2021/05/19 07:48:55;;;;;;;7.60;4.40;;;12.00;90.00;;;;;;5042459;28;20437;-78
2021/05/19 07:51:21;;;;;;;9.40;4.30;;;12.00;89.70;;;;;;5039553;28;20495;-77
2021/05/19 07:53:47;;;;;;;10.80;4.17;;;12.00;85.90;;;;;;5048533;28;20177;-77
2021/05/19 07:56:21;;;;;;;8.53;4.00;;;12.00;86.30;;;;;;5033627;28;20247;-79
2021/05/19 07:58:51;;;;;;;6.40;4.17;;;12.00;87.00;;;;;;5045236;28;20200;-76
2021/05/19 08:03:51;;;;;;;6.20;4.30;;;11.90;87.60;;;;;;5036088;28;20415;-76
2021/05/19 08:06:18;;;;;;;5.83;4.10;;;12.00;86.20;;;;;;5040559;28;20453;-76
2021/05/19 08:08:44;;;;;;;10.67;4.83;;;12.00;86.50;;;;;;5033773;28;20420;-78
2021/05/19 08:11:10;;;;;;;9.30;4.80;;;12.00;87.80;;;;;;5049613;28;20441;-74
2021/05/19 08:13:39;;;;;;;9.10;5.67;;;12.20;87.40;;;;;;5053203;28;20427;-76
2021/05/19 08:16:08;;;;;;;5.70;3.60;;;12.20;86.00;;;;;;5049814;28;20475;-76
2021/05/19 08:18:35;;;;;;;4.60;4.00;;;12.20;85.90;;;;;;5041809;28;20457;-75
2021/05/19 08:21:01;;;;;;;7.27;4.30;;;12.10;84.70;;;;;;5052373;28;20501;-76
2021/05/19 08:23:26;;;;;;;7.67;4.83;;;12.30;86.30;;;;;;5051912;28;20589;-76
2021/05/19 08:25:52;;;;;;;5.10;3.30;;;12.40;84.70;;;;;;5035902;28;20462;-74
2021/05/19 08:28:18;;;;;;;7.87;4.13;;;12.50;85.00;;;;;;5053061;28;20740;-76
2021/05/19 08:30:44;;;;;;;4.63;3.60;;;12.60;86.20;;;;;;5031276;28;20209;-75
2021/05/19 08:33:10;;;;;;;5.20;3.70;;;12.80;84.70;;;;;;5032369;28;20648;-74
2021/05/19 08:35:35;;;;;;;5.07;3.70;;;12.90;84.10;;;;;;5043762;28;20575;-74
2021/05/19 08:38:01;;;;;;;6.43;3.50;;;13.00;83.00;;;;;;5044620;28;20215;-74
2021/05/19 08:40:28;;;;;;;4.70;3.50;;;13.00;82.40;;;;;;5038487;28;20177;-76
2021/05/19 08:42:55;;;;;;;4.47;3.80;;;13.00;78.00;;;;;;5040820;28;20201;-75
2021/05/19 08:45:20;;;;;;;8.17;3.93;;;13.00;80.90;;;;;;5019953;28;20443;-76
2021/05/19 08:47:52;;;;;;;6.07;3.13;;;13.10;78.30;;;;;;5054568;28;20537;-79
2021/05/19 08:50:18;;;;;;;8.30;3.40;;;13.00;78.70;;;;;;5033231;28;20204;-77
2021/05/19 08:52:46;;;;;;;8.10;3.63;;;13.10;78.70;;;;;;5039471;28;20427;-75
2021/05/19 08:55:14;;;;;;;6.23;3.70;;;13.10;77.40;;;;;;5022283;28;20213;-78
2021/05/19 08:57:41;;;;;;;7.83;3.23;;;13.10;78.70;;;;;;5033210;28;20448;-78
2021/05/19 09:00:09;;;;;;;9.53;3.80;;;13.30;78.90;;;;;;5041461;28;20423;-76
2021/05/19 09:02:35;;;;;;;4.90;3.40;;;13.10;75.10;;;;;;5053358;28;20411;-75
2021/05/19 09:05:01;;;;;;;5.17;3.57;;;13.00;75.90;;;;;;5041439;28;20508;-82
2021/05/19 09:07:27;;;;;;;4.53;3.07;;;12.90;77.60;;;;;;5039117;28;20431;-77
2021/05/19 09:09:53;;;;;;;4.33;3.10;;;13.10;77.00;;;;;;5046040;28;20268;-77
2021/05/19 09:12:19;;;;;;;5.53;3.10;;;13.30;75.50;;;;;;5047062;28;20858;-77
2021/05/19 09:14:51;;;;;;;5.13;3.03;;;13.20;74.80;;;;;;5043280;28;20205;-75
2021/05/19 09:17:22;;;;;;;5.40;3.00;;;12.90;75.70;;;;;;5042743;28;20431;-75
2021/05/19 09:19:48;;;;;;;2.50;1.97;;;12.90;76.70;;;;;;5031850;28;20465;-75
2021/05/19 09:22:22;;;;;;;5.07;2.03;;;13.10;68.00;;;;;;5030084;28;20455;-76
2021/05/19 09:24:49;;;;;;;4.50;2.10;;;13.20;66.40;;;;;;5031248;28;20555;-76
2021/05/19 09:27:15;;;;;;;5.50;2.50;;;13.30;66.10;;;;;;5044316;28;20443;-74
2021/05/19 09:29:53;;;;;;;4.90;2.47;;;13.50;70.10;;;;;;5030552;28;20430;-74
2021/05/19 09:32:20;;;;;;;4.20;2.00;;;13.40;69.80;;;;;;5029737;28;20454;-76
2021/05/19 09:34:50;;;;;;;8.27;2.07;;;13.60;69.80;;;;;;5039135;28;20444;-75
2021/05/19 09:37:30;;;;;;;2.23;1.50;;;13.60;66.70;;;;;;5042817;28;20859;-76
2021/05/19 09:40:00;;;;;;;2.77;2.00;;;13.70;65.30;;;;;;5042797;28;20553;-75
2021/05/19 09:42:37;;;;;;;4.67;1.70;;;13.80;63.70;;;;;;5040457;28;20422;-75
2021/05/19 09:45:24;;;;;;;3.97;1.87;;;13.70;64.20;;;;;;5036116;28;20458;-75
2021/05/19 09:47:51;;;;;;;3.93;2.57;;;13.60;64.20;;;;;;5038244;28;20442;-75
2021/05/19 09:50:20;;;;;;;2.47;2.00;;;13.90;66.40;;;;;;5049406;28;20415;-76
2021/05/19 09:53:08;;;;;;;4.80;2.10;;;14.10;64.40;;;;;;5051087;28;20427;-76
2021/05/19 09:55:36;;;;;;;7.20;2.20;;;14.20;65.00;;;;;;5020225;28;20460;-74
2021/05/19 09:58:02;;;;;;;7.00;2.67;;;14.30;64.40;;;;;;5027522;28;20425;-76
2021/05/19 10:00:29;;;;;;;3.20;2.40;;;14.50;63.20;;;;;;5011304;28;20416;-77
2021/05/19 10:02:55;;;;;;;4.37;1.83;;;14.20;64.10;;;;;;5040759;28;20423;-75
2021/05/19 10:05:27;;;;;;;3.57;2.23;;;14.00;64.50;;;;;;5030195;28;20858;-76
2021/05/19 10:07:54;;;;;;;1.90;1.57;;;13.90;61.90;;;;;;5042892;28;20447;-77
2021/05/19 10:10:21;;;;;;;2.37;1.77;;;13.80;61.70;;;;;;5038808;28;20439;-77
2021/05/19 10:12:47;;;;;;;5.17;1.77;;;14.10;61.70;;;;;;5053064;28;20428;-78
2021/05/19 10:15:17;;;;;;;2.03;1.40;;;14.70;57.40;;;;;;5045660;28;20554;-78
2021/05/19 10:17:50;;;;;;;5.93;1.60;;;15.10;54.00;;;;;;5048295;28;20424;-76
2021/05/19 10:20:21;;;;;;;3.53;1.40;;;15.30;55.70;;;;;;5042610;28;20411;-76
2021/05/19 10:22:49;;;;;;;4.50;1.33;;;14.90;54.40;;;;;;5026057;28;20440;-76
2021/05/19 10:25:47;;;;;;;2.17;1.70;;;14.40;56.10;;;;;;5022805;28;20444;-76
2021/05/19 10:28:16;;;;;;;1.50;1.23;;;14.50;54.80;;;;;;5039235;28;20438;-77
2021/05/19 10:30:50;;;;;;;1.27;1.00;;;14.30;56.00;;;;;;5038185;28;20443;-76
2021/05/19 10:33:40;;;;;;;5.50;1.30;;;14.80;49.40;;;;;;5045518;28;20435;-79
2021/05/19 10:36:24;;;;;;;2.60;1.07;;;14.80;48.60;;;;;;5028542;28;20471;-77
2021/05/19 10:39:08;;;;;;;2.17;1.10;;;14.60;53.00;;;;;;5035064;28;20516;-77
2021/05/19 10:41:47;;;;;;;5.33;1.60;;;15.00;54.10;;;;;;5031414;28;20478;-79
2021/05/19 10:44:17;;;;;;;3.90;1.17;;;15.00;51.80;;;;;;5015743;28;20539;-76
2021/05/19 10:46:46;;;;;;;3.00;1.40;;;15.30;51.60;;;;;;5014491;28;21035;-76
2021/05/19 10:49:12;;;;;;;3.07;1.37;;;14.80;51.30;;;;;;5035190;28;20517;-78
2021/05/19 10:52:19;;;;;;;3.17;1.33;;;15.10;52.00;;;;;;5009852;28;20507;-76
2021/05/19 10:57:35;;;;;;;2.63;1.40;;;15.20;48.70;;;;;;5034916;28;20420;-76
2021/05/19 11:00:26;;;;;;;3.43;1.30;;;15.40;50.30;;;;;;5015115;28;20426;-77
2021/05/19 11:03:00;;;;;;;2.53;1.40;;;15.60;48.20;;;;;;5041784;28;20427;-77
2021/05/19 11:05:32;;;;;;;1.70;1.30;;;15.20;52.10;;;;;;5030761;28;20583;-79
2021/05/19 11:08:07;;;;;;;3.63;1.40;;;15.00;51.60;;;;;;5029603;28;20793;-76
2021/05/19 11:10:34;;;;;;;2.73;1.43;;;15.20;52.80;;;;;;5040227;28;20412;-76
2021/05/19 11:13:00;;;;;;;1.93;1.47;;;16.00;51.00;;;;;;5041844;28;20428;-76
2021/05/19 11:16:00;;;;;;;2.60;1.73;;;16.60;49.00;;;;;;5028562;28;20528;-76
2021/05/19 11:21:19;;;;;;;19.77;2.53;;;15.00;54.10;;;;;;5035653;28;20418;-77
2021/05/19 11:24:12;;;;;;;3.30;1.57;;;15.20;55.30;;;;;;5047954;28;20860;-76
2021/05/19 11:26:45;;;;;;;4.50;1.80;;;15.80;54.00;;;;;;5038766;28;20438;-79
2021/05/19 11:29:15;;;;;;;3.27;1.40;;;16.40;52.40;;;;;;5032665;28;20497;-78
2021/05/19 11:31:44;;;;;;;4.40;1.90;;;16.60;43.90;;;;;;5029650;28;20455;-79
2021/05/19 11:34:11;;;;;;;4.97;1.60;;;16.60;42.80;;;;;;5026057;28;20429;-78
2021/05/19 11:36:59;;;;;;;6.97;2.07;;;16.90;45.00;;;;;;5039118;28;20463;-75
2021/05/19 11:39:27;;;;;;;3.53;1.70;;;17.30;44.70;;;;;;5041529;28;20504;-75
2021/05/19 11:42:08;;;;;;;4.37;1.53;;;17.30;45.70;;;;;;5047347;28;20419;-75
2021/05/19 11:44:40;;;;;;;3.43;1.33;;;16.80;49.00;;;;;;5046734;28;20442;-77
2021/05/19 11:47:07;;;;;;;2.63;1.43;;;17.10;40.30;;;;;;5056692;28;20427;-76
2021/05/19 11:49:34;;;;;;;5.47;2.03;;;17.00;47.40;;;;;;5050401;28;20427;-76
2021/05/19 11:51:59;;;;;;;2.67;1.80;;;16.50;49.70;;;;;;5040913;28;20417;-77
2021/05/19 11:54:26;;;;;;;3.67;1.70;;;15.70;49.70;;;;;;5039426;28;21298;-78
2021/05/19 11:56:54;;;;;;;3.27;1.50;;;15.70;51.80;;;;;;5033980;28;21001;-77
2021/05/19 11:59:24;;;;;;;4.87;2.17;;;16.00;51.00;;;;;;5050698;28;20419;-76
2021/05/19 12:01:54;;;;;;;2.80;1.40;;;16.50;49.80;;;;;;5036598;28;20445;-76
2021/05/19 12:04:20;;;;;;;3.27;1.50;;;16.80;45.90;;;;;;5035905;28;20445;-76
2021/05/19 12:06:49;;;;;;;3.13;1.87;;;16.40;47.70;;;;;;5045188;28;20461;-78
2021/05/19 12:09:17;;;;;;;2.03;1.30;;;16.30;45.70;;;;;;5059882;28;20430;-77
2021/05/19 12:11:43;;;;;;;4.53;1.63;;;16.20;46.20;;;;;;5050745;28;20519;-75
2021/05/19 12:14:10;;;;;;;3.10;1.80;;;16.60;46.50;;;;;;5059748;28;20483;-77
2021/05/19 12:16:41;;;;;;;2.20;1.53;;;16.60;45.50;;;;;;5055151;28;20451;-76
2021/05/19 12:19:18;;;;;;;2.90;1.57;;;16.00;47.00;;;;;;5054384;28;20462;-79
2021/05/19 12:21:53;;;;;;;10.10;1.70;;;15.90;47.00;;;;;;5042443;28;20415;-79
2021/05/19 12:24:24;;;;;;;4.17;2.10;;;16.20;47.40;;;;;;5041801;28;20537;-77
2021/05/19 12:26:55;;;;;;;4.43;2.00;;;16.30;46.30;;;;;;5053657;28;20460;-77
2021/05/19 12:29:33;;;;;;;5.30;1.90;;;16.80;45.50;;;;;;5042451;28;20459;-77
2021/05/19 12:32:26;;;;;;;7.30;2.50;;;16.90;44.50;;;;;;5026334;28;20488;-77
2021/05/19 12:35:13;;;;;;;2.30;1.50;;;16.60;45.10;;;;;;5034605;28;20451;-79
2021/05/19 12:37:51;;;;;;;4.57;1.80;;;16.40;43.90;;;;;;5034521;28;20453;-77
2021/05/19 12:40:29;;;;;;;3.43;1.70;;;16.60;44.60;;;;;;5034547;28;20418;-81
2021/05/19 12:43:00;;;;;;;3.00;1.77;;;17.20;44.30;;;;;;5046135;28;20517;-77
2021/05/19 12:45:31;;;;;;;5.70;1.60;;;17.00;44.60;;;;;;5040924;28;20461;-79
2021/05/19 12:48:10;;;;;;;3.33;1.60;;;17.50;45.00;;;;;;5039195;28;20435;-77
2021/05/19 12:50:48;;;;;;;7.40;2.40;;;18.30;42.70;;;;;;5053601;28;20512;-77
2021/05/19 12:53:42;;;;;;;6.30;1.90;;;17.70;42.20;;;;;;5049813;28;20431;-77
2021/05/19 12:56:17;;;;;;;3.33;1.30;;;18.20;40.30;;;;;;5046418;28;20471;-78
2021/05/19 12:58:55;;;;;;;4.00;2.10;;;17.50;37.20;;;;;;5035430;28;20428;-77
2021/05/19 13:01:20;;;;;;;5.43;1.33;;;17.30;39.00;;;;;;5048265;28;20427;-78
2021/05/19 13:03:46;;;;;;;2.70;1.30;;;17.10;39.60;;;;;;5050189;28;20449;-78
2021/05/19 13:06:13;;;;;;;2.07;1.60;;;17.70;38.80;;;;;;5052692;28;20278;-78
2021/05/19 13:08:39;;;;;;;2.33;1.57;;;17.60;39.80;;;;;;5053183;28;20517;-79